createdAt,value
2022-08-25T00:01:42.181Z,23.45
2022-08-25T00:04:11.701Z,23.46
2022-08-25T00:06:41.808Z,23.47
2022-08-25T00:09:09.726Z,23.42
2022-08-25T00:11:38.753Z,23.40
2022-08-25T00:14:10.240Z,23.37
2022-08-25T00:16:36.760Z,23.32
2022-08-25T00:19:08.769Z,23.37
2022-08-25T00:21:35.496Z,23.30
2022-08-25T00:26:31.524Z,23.29
2022-08-25T00:29:01.251Z,23.22
2022-08-25T00:31:38.213Z,23.20
2022-08-25T00:34:12.719Z,23.15
2022-08-25T00:36:39.324Z,23.02
2022-08-25T00:39:08.718Z,23.13
2022-08-25T00:41:36.354Z,23.16
2022-08-25T00:44:06.497Z,23.12
2022-08-25T00:46:43.832Z,23.06
2022-08-25T00:49:30.582Z,23.02
2022-08-25T00:52:04.869Z,22.94
2022-08-25T00:55:11.437Z,23.00
2022-08-25T00:57:42.769Z,23.00
2022-08-25T01:00:14.342Z,23.00
2022-08-25T01:02:41.464Z,23.00
2022-08-25T01:05:09.036Z,23.00
2022-08-25T01:07:36.776Z,22.90
2022-08-25T01:10:04.744Z,22.92
2022-08-25T01:12:31.159Z,22.77
2022-08-25T01:14:58.435Z,22.77
2022-08-25T01:17:28.072Z,22.59
2022-08-25T01:19:55.817Z,22.62
2022-08-25T01:22:22.459Z,22.68
2022-08-25T01:25:07.710Z,22.82
2022-08-25T01:27:34.130Z,22.78
2022-08-25T01:30:00.549Z,22.72
2022-08-25T01:32:26.974Z,22.68
2022-08-25T01:34:53.437Z,22.84
2022-08-25T01:37:20.597Z,22.81
2022-08-25T01:39:47.341Z,22.89
2022-08-25T01:42:34.004Z,22.86
2022-08-25T01:45:00.445Z,22.83
2022-08-25T01:47:26.913Z,22.88
2022-08-25T01:49:53.331Z,22.96
2022-08-25T01:52:27.747Z,22.96
2022-08-25T01:54:54.207Z,23.03
2022-08-25T01:57:22.035Z,22.98
2022-08-25T01:59:48.447Z,22.79
2022-08-25T02:02:15.010Z,22.98
2022-08-25T02:04:44.816Z,23.02
2022-08-25T02:07:11.266Z,23.04
2022-08-25T02:09:38.417Z,23.06
2022-08-25T02:12:05.501Z,22.97
2022-08-25T02:14:32.189Z,23.08
2022-08-25T02:16:58.619Z,23.16
2022-08-25T02:19:26.252Z,23.17
2022-08-25T02:21:53.353Z,23.11
2022-08-25T02:24:20.105Z,23.14
2022-08-25T02:26:46.624Z,23.16
2022-08-25T02:29:13.532Z,23.10
2022-08-25T02:31:40.481Z,23.13
2022-08-25T02:34:08.702Z,23.16
2022-08-25T02:36:35.580Z,23.08
2022-08-25T02:39:02.182Z,23.15
2022-08-25T02:41:31.812Z,23.16
2022-08-25T02:43:59.450Z,23.13
2022-08-25T02:46:26.104Z,23.18
2022-08-25T02:48:53.444Z,23.17
2022-08-25T02:51:22.530Z,23.12
2022-08-25T02:53:49.905Z,23.07
2022-08-25T02:56:18.575Z,23.09
2022-08-25T02:58:46.001Z,23.06
2022-08-25T03:01:13.887Z,23.00
2022-08-25T03:03:43.504Z,23.02
2022-08-25T03:06:12.510Z,22.95
2022-08-25T03:08:39.329Z,22.90
2022-08-25T03:11:06.156Z,22.78
2022-08-25T03:13:32.682Z,22.86
2022-08-25T03:16:00.383Z,22.83
2022-08-25T03:18:27.505Z,22.84
2022-08-25T03:20:54.873Z,22.81
2022-08-25T03:23:21.427Z,22.77
2022-08-25T03:26:06.339Z,22.71
2022-08-25T03:28:33.183Z,22.68
2022-08-25T03:31:01.187Z,22.67
2022-08-25T03:33:30.420Z,22.56
2022-08-25T03:35:57.177Z,22.55
2022-08-25T03:38:25.278Z,22.54
2022-08-25T03:40:52.869Z,22.52
2022-08-25T03:43:19.961Z,22.43
2022-08-25T03:45:47.756Z,22.38
2022-08-25T03:48:15.067Z,22.36
2022-08-25T03:50:50.377Z,22.41
2022-08-25T03:53:18.309Z,22.32
2022-08-25T03:55:44.724Z,22.36
2022-08-25T03:58:12.336Z,22.30
2022-08-25T04:00:39.432Z,22.27
2022-08-25T04:03:06.297Z,22.28
2022-08-25T04:05:32.963Z,22.29
2022-08-25T04:08:01.803Z,22.22
2022-08-25T04:10:29.232Z,22.08
2022-08-25T04:12:56.124Z,22.04
2022-08-25T04:15:22.888Z,22.08
2022-08-25T04:17:49.543Z,22.14
2022-08-25T04:20:18.926Z,22.14
2022-08-25T04:22:45.682Z,22.12
2022-08-25T04:25:12.766Z,22.07
2022-08-25T04:27:39.206Z,22.13
2022-08-25T04:30:06.674Z,22.06
2022-08-25T04:32:33.331Z,22.04
2022-08-25T04:34:59.953Z,22.07
2022-08-25T04:37:26.514Z,22.01
2022-08-25T04:39:52.997Z,21.98
2022-08-25T04:42:19.580Z,21.92
2022-08-25T04:44:45.984Z,22.01
2022-08-25T04:47:12.400Z,22.03
2022-08-25T04:49:38.795Z,22.02
2022-08-25T04:52:05.455Z,22.10
2022-08-25T04:54:40.307Z,22.03
2022-08-25T04:57:06.813Z,22.06
2022-08-25T04:59:33.691Z,22.20
2022-08-25T05:02:05.201Z,22.12
2022-08-25T05:04:33.312Z,22.06
2022-08-25T05:07:00.265Z,22.01
2022-08-25T05:09:27.786Z,22.01
2022-08-25T05:11:54.891Z,21.98
2022-08-25T05:14:26.670Z,22.10
2022-08-25T05:16:54.308Z,22.05
2022-08-25T05:19:20.740Z,22.10
2022-08-25T05:21:47.147Z,22.11
2022-08-25T05:24:13.571Z,22.15
2022-08-25T05:26:40.025Z,22.11
2022-08-25T05:29:06.936Z,22.05
2022-08-25T05:31:36.368Z,22.20
2022-08-25T05:34:07.391Z,22.16
2022-08-25T05:36:34.203Z,22.19
2022-08-25T05:39:01.077Z,22.10
2022-08-25T05:41:30.625Z,22.11
2022-08-25T05:43:57.322Z,22.31
2022-08-25T05:46:24.746Z,22.28
2022-08-25T05:48:51.458Z,22.36
2022-08-25T05:51:18.829Z,22.36
2022-08-25T05:53:47.222Z,22.49
2022-08-25T05:56:14.631Z,22.51
2022-08-25T05:58:42.607Z,22.65
2022-08-25T06:01:30.066Z,22.67
2022-08-25T06:03:56.556Z,22.70
2022-08-25T06:06:24.395Z,22.97
2022-08-25T06:08:51.615Z,23.11
2022-08-25T06:11:18.548Z,23.19
2022-08-25T06:13:45.571Z,23.30
2022-08-25T06:16:12.310Z,23.52
2022-08-25T06:18:38.763Z,23.44
2022-08-25T06:21:12.815Z,23.09
2022-08-25T06:23:40.180Z,23.15
2022-08-25T06:26:09.735Z,23.57
2022-08-25T06:28:39.687Z,23.59
2022-08-25T06:31:06.576Z,23.27
2022-08-25T06:33:33.168Z,23.43
2022-08-25T06:35:59.878Z,23.38
2022-08-25T06:38:26.993Z,23.27
2022-08-25T06:40:53.880Z,23.67
2022-08-25T06:43:21.798Z,23.40
2022-08-25T06:45:48.525Z,23.56
2022-08-25T06:48:15.116Z,23.64
2022-08-25T06:50:42.148Z,23.69
2022-08-25T06:53:09.419Z,23.55
2022-08-25T06:55:36.500Z,23.61
2022-08-25T06:58:04.930Z,23.83
2022-08-25T07:00:32.637Z,24.62
2022-08-25T07:03:01.150Z,25.14
2022-08-25T07:05:40.864Z,25.60
2022-08-25T07:08:11.686Z,25.80
2022-08-25T07:10:38.251Z,25.91
2022-08-25T07:13:04.691Z,26.11
2022-08-25T07:15:31.098Z,26.46
2022-08-25T07:17:57.719Z,26.54
2022-08-25T07:22:52.290Z,26.91
2022-08-25T07:25:18.883Z,27.15
2022-08-25T07:27:45.994Z,27.39
2022-08-25T07:30:12.532Z,26.96
2022-08-25T07:32:42.246Z,27.12
2022-08-25T07:35:18.922Z,27.21
2022-08-25T07:37:52.503Z,27.31
2022-08-25T07:40:23.837Z,27.61
2022-08-25T07:42:52.359Z,27.90
2022-08-25T07:45:20.986Z,28.21
2022-08-25T07:47:52.220Z,28.34
2022-08-25T07:50:19.271Z,28.54
2022-08-25T07:52:54.825Z,28.41
2022-08-25T07:55:22.512Z,28.39
2022-08-25T07:57:50.964Z,29.02
2022-08-25T08:00:21.489Z,28.72
2022-08-25T08:02:48.231Z,29.20
2022-08-25T08:05:15.597Z,29.00
2022-08-25T08:07:43.720Z,29.59
2022-08-25T08:13:00.447Z,30.18
2022-08-25T08:15:28.388Z,30.39
2022-08-25T08:17:56.748Z,30.51
2022-08-25T08:20:24.774Z,30.71
2022-08-25T08:22:52.037Z,30.76
2022-08-25T08:25:18.834Z,30.88
2022-08-25T08:27:48.804Z,30.84
2022-08-25T08:30:15.422Z,32.05
2022-08-25T08:33:08.194Z,32.53
2022-08-25T08:35:28.595Z,31.88
2022-08-25T08:37:55.017Z,32.70
2022-08-25T08:40:21.992Z,33.25
2022-08-25T08:43:02.400Z,33.79
2022-08-25T08:45:40.100Z,33.75
2022-08-25T08:48:49.759Z,33.32
2022-08-25T08:51:24.669Z,33.61
2022-08-25T08:53:57.252Z,34.51
2022-08-25T08:56:30.808Z,34.79
2022-08-25T08:59:09.515Z,34.40
2022-08-25T09:02:00.401Z,34.56
2022-08-25T09:04:43.735Z,34.64
2022-08-25T09:07:16.235Z,34.62
2022-08-25T09:09:43.590Z,34.77
2022-08-25T09:12:17.161Z,34.27
2022-08-25T09:15:13.099Z,34.66
2022-08-25T09:17:59.425Z,35.86
2022-08-25T09:20:34.907Z,35.69
2022-08-25T09:23:15.483Z,35.50
2022-08-25T09:26:14.709Z,35.72
2022-08-25T09:28:51.151Z,36.17
2022-08-25T09:31:31.486Z,35.71
2022-08-25T09:34:01.644Z,36.31
2022-08-25T09:36:30.130Z,36.34
2022-08-25T09:38:57.870Z,36.37
2022-08-25T09:41:46.619Z,35.93
2022-08-25T09:44:33.972Z,35.43
2022-08-25T09:47:02.293Z,36.19
2022-08-25T09:49:37.496Z,36.79
2022-08-25T09:52:27.178Z,37.00
2022-08-25T09:54:55.614Z,36.98
2022-08-25T09:57:46.458Z,37.62
2022-08-25T10:00:14.901Z,37.54
2022-08-25T10:02:44.691Z,37.10
2022-08-25T10:05:24.374Z,37.43
2022-08-25T10:08:24.871Z,37.29
2022-08-25T10:10:57.614Z,37.97
2022-08-25T10:13:35.832Z,38.20
2022-08-25T10:16:20.011Z,37.63
2022-08-25T10:19:05.163Z,36.20
2022-08-25T10:21:31.699Z,37.38
2022-08-25T10:24:01.484Z,37.52
2022-08-25T10:26:39.377Z,38.02
2022-08-25T10:29:23.227Z,38.19
2022-08-25T10:32:13.559Z,38.09
2022-08-25T10:34:51.858Z,38.57
2022-08-25T10:37:47.987Z,37.91
2022-08-25T10:40:24.847Z,38.21
2022-08-25T10:43:38.497Z,36.74
2022-08-25T10:46:27.855Z,37.45
2022-08-25T10:49:10.837Z,38.12
2022-08-25T10:52:05.262Z,36.91
2022-08-25T10:54:40.653Z,37.36
2022-08-25T10:57:31.389Z,37.86
2022-08-25T11:00:28.779Z,38.44
2022-08-25T11:03:35.307Z,38.28
2022-08-25T11:06:10.519Z,38.45
2022-08-25T11:08:47.608Z,38.95
2022-08-25T11:11:21.616Z,38.64
2022-08-25T11:13:54.031Z,38.08
2022-08-25T11:16:25.689Z,35.74
2022-08-25T11:19:05.555Z,35.47
2022-08-25T11:21:49.898Z,35.87
2022-08-25T11:24:28.771Z,37.47
2022-08-25T11:26:57.019Z,38.55
2022-08-25T11:29:32.732Z,36.43
2022-08-25T11:32:01.642Z,36.55
2022-08-25T11:34:32.633Z,38.24
2022-08-25T11:37:11.241Z,37.80
2022-08-25T11:39:56.256Z,38.55
2022-08-25T11:42:44.084Z,37.85
2022-08-25T11:45:54.498Z,38.27
2022-08-25T11:48:41.409Z,37.79
2022-08-25T11:51:11.296Z,37.47
2022-08-25T11:53:42.225Z,37.70
2022-08-25T11:56:32.643Z,37.56
2022-08-25T11:58:59.221Z,37.52
2022-08-25T12:01:40.721Z,37.88
2022-08-25T12:04:33.746Z,37.82
2022-08-25T12:07:06.088Z,38.04
2022-08-25T12:09:54.543Z,37.96
2022-08-25T12:12:56.530Z,37.87
2022-08-25T12:15:32.228Z,38.14
2022-08-25T12:18:16.284Z,38.33
2022-08-25T12:20:54.402Z,35.47
2022-08-25T12:23:37.780Z,35.78
2022-08-25T12:26:21.655Z,35.67
2022-08-25T12:28:57.106Z,35.91
2022-08-25T12:31:52.764Z,35.62
2022-08-25T12:34:41.299Z,36.10
2022-08-25T12:37:16.947Z,35.97
2022-08-25T12:39:45.797Z,37.09
2022-08-25T12:42:35.920Z,35.99
2022-08-25T12:45:10.779Z,35.66
2022-08-25T12:47:38.388Z,35.94
2022-08-25T12:50:28.424Z,36.48
2022-08-25T12:52:59.482Z,37.09
2022-08-25T12:55:27.046Z,37.69
2022-08-25T12:57:58.894Z,36.35
2022-08-25T13:00:30.026Z,37.47
2022-08-25T13:03:14.816Z,37.00
2022-08-25T13:05:47.973Z,37.34
2022-08-25T13:08:48.242Z,36.59
2022-08-25T13:11:14.638Z,36.64
2022-08-25T13:13:56.382Z,36.74
2022-08-25T13:16:29.731Z,36.97
2022-08-25T13:18:59.422Z,36.89
2022-08-25T13:21:43.341Z,36.39
2022-08-25T13:24:24.309Z,35.81
2022-08-25T13:26:57.682Z,35.77
2022-08-25T13:29:35.835Z,35.55
2022-08-25T13:32:13.036Z,35.20
2022-08-25T13:34:43.301Z,34.79
2022-08-25T13:37:29.746Z,35.06
2022-08-25T13:40:26.818Z,35.02
2022-08-25T13:42:58.241Z,35.08
2022-08-25T13:45:29.988Z,34.72
2022-08-25T13:47:59.217Z,34.81
2022-08-25T13:50:26.380Z,34.24
2022-08-25T13:52:55.092Z,33.58
2022-08-25T13:55:28.670Z,33.92
2022-08-25T13:57:58.181Z,34.15
2022-08-25T14:00:32.546Z,33.68
2022-08-25T14:03:00.649Z,33.65
2022-08-25T14:06:04.362Z,33.90
2022-08-25T14:08:34.643Z,33.56
2022-08-25T14:11:30.638Z,33.61
2022-08-25T14:14:09.309Z,33.34
2022-08-25T14:16:50.167Z,33.36
2022-08-25T14:19:23.241Z,33.66
2022-08-25T14:21:50.509Z,33.65
2022-08-25T14:24:23.718Z,33.48
2022-08-25T14:26:54.401Z,33.09
2022-08-25T14:29:22.149Z,33.20
2022-08-25T14:31:49.926Z,33.02
2022-08-25T14:34:22.953Z,33.02
2022-08-25T14:36:50.878Z,32.92
2022-08-25T14:39:18.148Z,33.24
2022-08-25T14:41:52.708Z,32.80
2022-08-25T14:44:21.035Z,32.70
2022-08-25T14:46:54.141Z,32.55
2022-08-25T14:49:29.718Z,32.55
2022-08-25T14:52:00.139Z,32.16
2022-08-25T14:54:27.330Z,32.22
2022-08-25T14:56:53.820Z,32.24
2022-08-25T14:59:20.501Z,32.23
2022-08-25T15:01:47.142Z,32.14
2022-08-25T15:04:22.293Z,32.42
2022-08-25T15:06:54.412Z,32.54
2022-08-25T15:09:21.539Z,32.53
2022-08-25T15:11:54.668Z,32.13
2022-08-25T15:14:28.588Z,32.17
2022-08-25T15:16:59.727Z,32.05
2022-08-25T15:19:27.565Z,32.06
2022-08-25T15:21:54.469Z,31.95
2022-08-25T15:24:25.752Z,32.11
2022-08-25T15:26:58.475Z,32.08
2022-08-25T15:29:29.234Z,32.03
2022-08-25T15:31:56.677Z,32.08
2022-08-25T15:34:23.178Z,32.03
2022-08-25T15:36:50.890Z,32.03
2022-08-25T15:39:18.986Z,32.05
2022-08-25T15:41:57.374Z,32.15
2022-08-25T15:44:29.042Z,32.12
2022-08-25T15:46:56.344Z,31.99
2022-08-25T15:49:24.046Z,31.84
2022-08-25T15:51:52.929Z,31.85
2022-08-25T15:54:22.203Z,31.60
2022-08-25T15:56:48.775Z,31.82
2022-08-25T15:59:15.942Z,31.84
2022-08-25T16:01:44.382Z,31.83
2022-08-25T16:04:14.359Z,31.79
2022-08-25T16:06:41.040Z,31.62
2022-08-25T16:09:08.219Z,31.61
2022-08-25T16:11:35.264Z,31.76
2022-08-25T16:14:05.668Z,31.73
2022-08-25T16:16:32.698Z,31.64
2022-08-25T16:19:00.022Z,31.65
2022-08-25T16:21:30.469Z,31.57
2022-08-25T16:24:05.492Z,31.46
2022-08-25T16:26:36.376Z,31.44
2022-08-25T16:29:06.396Z,31.31
2022-08-25T16:31:33.201Z,31.32
2022-08-25T16:34:01.408Z,31.29
2022-08-25T16:36:28.174Z,31.31
2022-08-25T16:38:56.405Z,31.30
2022-08-25T16:41:26.179Z,31.14
2022-08-25T16:43:52.758Z,31.00
2022-08-25T16:46:21.277Z,31.01
2022-08-25T16:48:48.505Z,31.07
2022-08-25T16:51:19.273Z,31.07
2022-08-25T16:54:07.573Z,31.00
2022-08-25T16:56:36.085Z,30.94
2022-08-25T16:59:04.525Z,30.84
2022-08-25T17:01:35.321Z,30.79
2022-08-25T17:04:03.061Z,30.81
2022-08-25T17:06:33.127Z,30.76
2022-08-25T17:08:59.542Z,30.74
2022-08-25T17:11:31.869Z,30.75
2022-08-25T17:14:00.698Z,30.70
2022-08-25T17:16:31.392Z,30.67
2022-08-25T17:19:06.973Z,30.56
2022-08-25T17:21:38.305Z,30.48
2022-08-25T17:24:05.305Z,30.36
2022-08-25T17:26:31.901Z,30.34
2022-08-25T17:29:00.869Z,30.27
2022-08-25T17:31:28.746Z,30.15
2022-08-25T17:33:56.808Z,30.10
2022-08-25T17:36:27.197Z,30.05
2022-08-25T17:38:54.421Z,29.98
2022-08-25T17:41:21.029Z,29.85
2022-08-25T17:43:47.680Z,29.85
2022-08-25T17:46:15.207Z,29.86
2022-08-25T17:48:43.758Z,29.80
2022-08-25T17:51:11.037Z,29.73
2022-08-25T17:53:38.646Z,29.71
2022-08-25T17:56:11.180Z,29.69
2022-08-25T17:58:37.904Z,29.67
2022-08-25T18:01:05.943Z,29.63
2022-08-25T18:03:33.158Z,29.64
2022-08-25T18:06:00.420Z,29.62
2022-08-25T18:08:35.088Z,29.58
2022-08-25T18:11:03.381Z,29.47
2022-08-25T18:13:31.231Z,29.40
2022-08-25T18:15:57.916Z,29.35
2022-08-25T18:18:24.440Z,29.24
2022-08-25T18:20:51.216Z,29.18
2022-08-25T18:23:19.764Z,29.00
2022-08-25T18:25:48.580Z,28.86
2022-08-25T18:28:15.427Z,28.81
2022-08-25T18:30:42.725Z,28.85
2022-08-25T18:33:09.779Z,28.80
2022-08-25T18:35:36.223Z,28.64
2022-08-25T18:38:23.739Z,28.61
2022-08-25T18:40:58.206Z,28.52
2022-08-25T18:43:24.867Z,28.42
2022-08-25T18:45:51.483Z,28.38
2022-08-25T18:48:21.451Z,28.28
2022-08-25T18:50:54.133Z,28.24
2022-08-25T18:53:30.464Z,28.17
2022-08-25T18:56:04.646Z,28.03
2022-08-25T18:58:31.395Z,27.99
2022-08-25T19:00:57.772Z,27.90
2022-08-25T19:03:24.202Z,27.78
2022-08-25T19:05:57.201Z,27.65
2022-08-25T19:08:24.898Z,27.71
2022-08-25T19:10:53.306Z,27.65
2022-08-25T19:13:22.764Z,27.60
2022-08-25T19:15:51.309Z,27.48
2022-08-25T19:18:18.382Z,27.54
2022-08-25T19:20:45.057Z,27.55
2022-08-25T19:23:12.823Z,27.56
2022-08-25T19:25:41.465Z,27.45
2022-08-25T19:28:11.862Z,27.38
2022-08-25T19:30:39.334Z,27.43
2022-08-25T19:33:42.180Z,27.31
2022-08-25T19:36:04.661Z,27.27
2022-08-25T19:38:34.182Z,27.23
2022-08-25T19:41:02.554Z,27.15
2022-08-25T19:43:35.570Z,27.05
2022-08-25T19:46:02.038Z,27.00
2022-08-25T19:48:29.314Z,26.92
2022-08-25T19:50:55.949Z,27.02
2022-08-25T19:53:22.957Z,26.81
2022-08-25T19:55:49.361Z,26.70
2022-08-25T19:58:15.948Z,26.69
2022-08-25T20:00:47.150Z,26.59
2022-08-25T20:03:17.367Z,26.40
2022-08-25T20:05:43.863Z,26.35
2022-08-25T20:08:10.268Z,26.41
2022-08-25T20:10:41.792Z,26.49
2022-08-25T20:13:09.022Z,26.31
2022-08-25T20:15:37.947Z,26.38
2022-08-25T20:18:05.683Z,26.27
2022-08-25T20:20:34.660Z,26.20
2022-08-25T20:23:21.268Z,26.02
2022-08-25T20:25:50.192Z,25.98
2022-08-25T20:28:18.678Z,26.02
2022-08-25T20:30:45.616Z,25.77
2022-08-25T20:33:12.388Z,25.62
2022-08-25T20:35:38.799Z,25.82
2022-08-25T20:38:05.389Z,25.58
2022-08-25T20:40:32.485Z,25.52
2022-08-25T20:43:03.278Z,25.38
2022-08-25T20:45:29.707Z,25.44
2022-08-25T20:47:56.159Z,25.42
2022-08-25T20:50:23.967Z,25.46
2022-08-25T20:52:51.482Z,25.28
2022-08-25T20:55:18.883Z,25.18
2022-08-25T20:57:45.887Z,25.06
2022-08-25T21:00:15.728Z,25.10
2022-08-25T21:02:42.380Z,25.04
2022-08-25T21:05:08.934Z,25.00
2022-08-25T21:07:36.068Z,25.15
2022-08-25T21:10:05.683Z,24.96
2022-08-25T21:12:32.171Z,24.70
2022-08-25T21:14:58.591Z,24.65
2022-08-25T21:17:25.018Z,24.40
2022-08-25T21:19:51.733Z,24.61
2022-08-25T21:22:18.443Z,24.52
2022-08-25T21:24:45.083Z,24.54
2022-08-25T21:27:11.505Z,24.46
2022-08-25T21:29:38.342Z,24.34
2022-08-25T21:32:11.457Z,24.40
2022-08-25T21:34:37.889Z,24.27
2022-08-25T21:37:05.305Z,24.36
2022-08-25T21:39:33.085Z,24.13
2022-08-25T21:42:00.545Z,24.35
2022-08-25T21:44:28.492Z,24.01
2022-08-25T21:46:55.216Z,24.10
2022-08-25T21:49:23.388Z,24.01
2022-08-25T21:52:00.396Z,24.04
2022-08-25T21:54:28.980Z,23.89
2022-08-25T21:57:03.199Z,23.79
2022-08-25T21:59:33.076Z,23.71
2022-08-25T22:02:11.202Z,23.67
2022-08-25T22:04:39.351Z,23.87
2022-08-25T22:07:07.827Z,23.53
2022-08-25T22:09:35.507Z,23.58
2022-08-25T22:12:03.074Z,23.58
2022-08-25T22:14:29.614Z,23.50
2022-08-25T22:16:56.126Z,23.60
2022-08-25T22:19:23.606Z,23.70
2022-08-25T22:21:52.590Z,23.34
2022-08-25T22:24:19.299Z,23.39
2022-08-25T22:26:47.721Z,23.20
2022-08-25T22:29:23.251Z,23.19
2022-08-25T22:31:52.933Z,23.43
2022-08-25T22:34:20.031Z,23.45
2022-08-25T22:36:59.702Z,23.21
2022-08-25T22:39:26.980Z,23.17
2022-08-25T22:41:53.848Z,23.07
2022-08-25T22:44:20.441Z,22.98
2022-08-25T22:46:46.857Z,23.10
2022-08-25T22:49:13.717Z,23.03
2022-08-25T22:51:40.825Z,23.09
2022-08-25T22:54:09.623Z,23.01
2022-08-25T22:56:37.378Z,22.97
2022-08-25T22:59:08.346Z,23.10
2022-08-25T23:01:35.895Z,23.03
2022-08-25T23:04:05.411Z,23.04
2022-08-25T23:06:34.362Z,22.93
2022-08-25T23:09:01.535Z,23.03
2022-08-25T23:11:29.000Z,22.78
2022-08-25T23:13:57.255Z,22.84
2022-08-25T23:16:24.105Z,23.01
2022-08-25T23:18:50.866Z,22.78
2022-08-25T23:21:41.023Z,22.63
2022-08-25T23:24:10.618Z,22.71
2022-08-25T23:26:37.827Z,22.82
2022-08-25T23:29:18.424Z,22.72
2022-08-25T23:31:47.580Z,22.89
2022-08-25T23:34:15.822Z,22.92
2022-08-25T23:36:43.841Z,22.77
2022-08-25T23:39:11.165Z,22.76
2022-08-25T23:41:38.089Z,22.72
2022-08-25T23:44:05.581Z,22.55
2022-08-25T23:46:34.987Z,22.78
2022-08-25T23:49:02.631Z,22.83
2022-08-25T23:51:37.224Z,22.91
2022-08-25T23:54:09.661Z,22.74
2022-08-25T23:56:44.914Z,22.89
2022-08-25T23:59:20.168Z,22.48
